フィレンツェ の空港の天気 - METARとTAF

フィレンツェ・ペレトラ空港 ( LIRQ / FLR ) - イタリア フィレンツェ
飛行場実況気象(Metar)
観測時間06/16 10:50 CEST (06/16 08:50 UTC)
風向・風速不定 2m/s
視程10km以上
天気現象
全天の8割程度の雲 雲底高度 910m
気温23℃
湿度73%
気圧1016hPa
METARLIRQ 160850Z VRB03KT 9999 BKN030 23/18 Q1016
過去の天気等 Google飛行場航空写真 Wunderground天気予報

過去48時間のMETAR

飛行場予報(TAF)
発表時間: 6/16 07:00 CEST (6/16 05:00 UTC)
予報対象時間: 16日8時 CEST ~ 17日8時 CEST
風向・風速不定 3m/s
視程10km以上
全天の4割程度の雲 雲底高度 760m
16日11時 CEST ~ 16日13時 CEST に徐々に
風向・風速西南西 5m/s
16日18時 CEST ~ 16日20時 CEST に徐々に
風向・風速不定 3m/s
TAF LIRQ 160500Z 1606/1706 VRB05KT 9999 SCT025
BECMG 1609/1611 24010KT
BECMG 1616/1618 VRB05KT